sensor_id;sensor_type;location;lat;lon;timestamp;temperature;humidity
36186;DHT22;22228;53.222;7.446;2024-01-10T00:00:43;-5.20;99.90
36186;DHT22;22228;53.222;7.446;2024-01-10T00:04:04;-5.10;99.90
36186;DHT22;22228;53.222;7.446;2024-01-10T00:07:24;-5.20;99.90
36186;DHT22;22228;53.222;7.446;2024-01-10T00:10:46;-5.20;99.90
36186;DHT22;22228;53.222;7.446;2024-01-10T00:14:07;-5.20;99.90
36186;DHT22;22228;53.222;7.446;2024-01-10T00:17:28;-5.20;99.90
36186;DHT22;22228;53.222;7.446;2024-01-10T00:20:49;-5.20;99.90
36186;DHT22;22228;53.222;7.446;2024-01-10T00:24:09;-5.20;99.90
36186;DHT22;22228;53.222;7.446;2024-01-10T00:27:31;-5.20;99.90
36186;DHT22;22228;53.222;7.446;2024-01-10T00:30:52;-5.20;99.90
36186;DHT22;22228;53.222;7.446;2024-01-10T00:34:12;-5.20;99.90
36186;DHT22;22228;53.222;7.446;2024-01-10T00:37:32;-5.20;99.90
36186;DHT22;22228;53.222;7.446;2024-01-10T00:40:53;-5.20;99.90
36186;DHT22;22228;53.222;7.446;2024-01-10T00:44:15;-5.20;99.90
36186;DHT22;22228;53.222;7.446;2024-01-10T00:47:35;-5.20;99.90
36186;DHT22;22228;53.222;7.446;2024-01-10T00:50:56;-5.20;99.90
36186;DHT22;22228;53.222;7.446;2024-01-10T00:54:16;-5.20;99.90
36186;DHT22;22228;53.222;7.446;2024-01-10T00:57:36;-5.20;99.90
36186;DHT22;22228;53.222;7.446;2024-01-10T01:00:58;-5.20;99.90
36186;DHT22;22228;53.222;7.446;2024-01-10T01:04:19;-5.20;99.90
36186;DHT22;22228;53.222;7.446;2024-01-10T01:07:39;-5.20;99.90
36186;DHT22;22228;53.222;7.446;2024-01-10T01:11:00;-5.20;99.90
36186;DHT22;22228;53.222;7.446;2024-01-10T01:14:20;-5.20;99.90
36186;DHT22;22228;53.222;7.446;2024-01-10T04:12:31;-5.30;99.90
36186;DHT22;22228;53.222;7.446;2024-01-10T04:16:07;-5.30;99.90
36186;DHT22;22228;53.222;7.446;2024-01-10T04:19:29;-5.30;99.90
36186;DHT22;22228;53.222;7.446;2024-01-10T04:22:50;-5.30;99.90
36186;DHT22;22228;53.222;7.446;2024-01-10T04:39:38;-5.30;99.90
36186;DHT22;22228;53.222;7.446;2024-01-10T04:47:42;-5.30;99.90
36186;DHT22;22228;53.222;7.446;2024-01-10T04:51:04;-5.30;99.90
36186;DHT22;22228;53.222;7.446;2024-01-10T04:55:29;-5.30;99.90
36186;DHT22;22228;53.222;7.446;2024-01-10T04:59:16;-5.40;99.90
36186;DHT22;22228;53.222;7.446;2024-01-10T05:02:49;-5.40;99.90
36186;DHT22;22228;53.222;7.446;2024-01-10T05:06:10;-5.40;99.90
36186;DHT22;22228;53.222;7.446;2024-01-10T05:09:39;-5.40;99.90
36186;DHT22;22228;53.222;7.446;2024-01-10T05:13:26;-5.30;99.90
36186;DHT22;22228;53.222;7.446;2024-01-10T05:16:46;-5.30;99.90
36186;DHT22;22228;53.222;7.446;2024-01-10T05:20:20;-5.20;99.90
36186;DHT22;22228;53.222;7.446;2024-01-10T05:23:44;-5.30;99.90
36186;DHT22;22228;53.222;7.446;2024-01-10T05:27:05;-5.30;99.90
36186;DHT22;22228;53.222;7.446;2024-01-10T05:30:27;-5.40;99.90
36186;DHT22;22228;53.222;7.446;2024-01-10T05:33:48;-5.40;99.90
36186;DHT22;22228;53.222;7.446;2024-01-10T05:37:12;-5.30;99.90
36186;DHT22;22228;53.222;7.446;2024-01-10T05:40:33;-5.30;99.90
36186;DHT22;22228;53.222;7.446;2024-01-10T05:43:54;-5.40;99.90
36186;DHT22;22228;53.222;7.446;2024-01-10T05:47:16;-5.40;99.90
36186;DHT22;22228;53.222;7.446;2024-01-10T05:51:08;-5.50;99.90
36186;DHT22;22228;53.222;7.446;2024-01-10T05:54:28;-5.50;99.90
36186;DHT22;22228;53.222;7.446;2024-01-10T05:57:49;-5.40;99.90
36186;DHT22;22228;53.222;7.446;2024-01-10T06:01:19;-5.50;99.90
36186;DHT22;22228;53.222;7.446;2024-01-10T06:04:41;-5.50;99.90
36186;DHT22;22228;53.222;7.446;2024-01-10T06:08:01;-5.60;99.90
36186;DHT22;22228;53.222;7.446;2024-01-10T06:15:41;-5.50;99.90
36186;DHT22;22228;53.222;7.446;2024-01-10T06:19:02;-5.50;99.90
36186;DHT22;22228;53.222;7.446;2024-01-10T06:22:25;-5.50;99.90
36186;DHT22;22228;53.222;7.446;2024-01-10T06:25:46;-5.50;99.90
36186;DHT22;22228;53.222;7.446;2024-01-10T06:29:06;-5.60;99.90
36186;DHT22;22228;53.222;7.446;2024-01-10T06:32:27;-5.60;99.90
36186;DHT22;22228;53.222;7.446;2024-01-10T06:35:55;-5.60;99.90
36186;DHT22;22228;53.222;7.446;2024-01-10T06:39:17;-5.60;99.90
36186;DHT22;22228;53.222;7.446;2024-01-10T06:42:45;-5.60;99.90
36186;DHT22;22228;53.222;7.446;2024-01-10T06:46:07;-5.60;99.90
36186;DHT22;22228;53.222;7.446;2024-01-10T06:53:37;-5.60;99.90
36186;DHT22;22228;53.222;7.446;2024-01-10T07:13:38;-5.70;99.90
36186;DHT22;22228;53.222;7.446;2024-01-10T07:16:59;-5.70;99.90
36186;DHT22;22228;53.222;7.446;2024-01-10T07:20:20;-5.70;99.90
36186;DHT22;22228;53.222;7.446;2024-01-10T07:24:44;-5.70;99.90
36186;DHT22;22228;53.222;7.446;2024-01-10T07:28:43;-5.70;99.90
36186;DHT22;22228;53.222;7.446;2024-01-10T07:32:31;-5.70;99.90
36186;DHT22;22228;53.222;7.446;2024-01-10T07:36:01;-5.70;99.90
36186;DHT22;22228;53.222;7.446;2024-01-10T07:39:22;-5.60;99.90
36186;DHT22;22228;53.222;7.446;2024-01-10T07:43:53;-5.60;99.90
36186;DHT22;22228;53.222;7.446;2024-01-10T07:47:16;-5.60;99.90
36186;DHT22;22228;53.222;7.446;2024-01-10T07:50:37;-5.60;99.90
36186;DHT22;22228;53.222;7.446;2024-01-10T07:53:59;-5.60;99.90
36186;DHT22;22228;53.222;7.446;2024-01-10T07:57:25;-5.50;99.90
36186;DHT22;22228;53.222;7.446;2024-01-10T08:00:47;-5.40;99.90
36186;DHT22;22228;53.222;7.446;2024-01-10T08:04:24;-5.40;99.90
36186;DHT22;22228;53.222;7.446;2024-01-10T08:07:45;-5.50;99.90
36186;DHT22;22228;53.222;7.446;2024-01-10T08:11:07;-5.50;99.90
36186;DHT22;22228;53.222;7.446;2024-01-10T08:14:29;-5.60;99.90
36186;DHT22;22228;53.222;7.446;2024-01-10T08:17:51;-5.50;99.90
36186;DHT22;22228;53.222;7.446;2024-01-10T08:21:12;-5.40;99.90
36186;DHT22;22228;53.222;7.446;2024-01-10T08:24:36;-5.40;99.90
36186;DHT22;22228;53.222;7.446;2024-01-10T08:28:02;-5.40;99.90
36186;DHT22;22228;53.222;7.446;2024-01-10T08:31:23;-5.30;99.90
36186;DHT22;22228;53.222;7.446;2024-01-10T08:34:47;-5.20;99.90
36186;DHT22;22228;53.222;7.446;2024-01-10T08:38:32;-5.20;99.90
36186;DHT22;22228;53.222;7.446;2024-01-10T08:42:39;-5.20;99.90
36186;DHT22;22228;53.222;7.446;2024-01-10T08:46:00;-5.10;99.90
36186;DHT22;22228;53.222;7.446;2024-01-10T08:49:21;-5.00;99.90
36186;DHT22;22228;53.222;7.446;2024-01-10T08:52:43;-4.90;99.90
36186;DHT22;22228;53.222;7.446;2024-01-10T08:56:04;-4.90;99.90
36186;DHT22;22228;53.222;7.446;2024-01-10T08:59:24;-4.80;99.90
36186;DHT22;22228;53.222;7.446;2024-01-10T09:02:48;-4.80;99.90
36186;DHT22;22228;53.222;7.446;2024-01-10T09:06:09;-4.70;99.90
36186;DHT22;22228;53.222;7.446;2024-01-10T09:09:42;-4.70;99.90
36186;DHT22;22228;53.222;7.446;2024-01-10T09:13:03;-4.60;99.90
36186;DHT22;22228;53.222;7.446;2024-01-10T09:16:23;-4.60;99.90
36186;DHT22;22228;53.222;7.446;2024-01-10T09:19:44;-4.50;99.90
36186;DHT22;22228;53.222;7.446;2024-01-10T09:23:04;-4.40;99.90
36186;DHT22;22228;53.222;7.446;2024-01-10T09:26:51;-4.40;99.90
36186;DHT22;22228;53.222;7.446;2024-01-10T09:30:13;-4.30;99.90
36186;DHT22;22228;53.222;7.446;2024-01-10T09:33:36;-4.20;99.90
36186;DHT22;22228;53.222;7.446;2024-01-10T09:36:56;-4.00;99.90
36186;DHT22;22228;53.222;7.446;2024-01-10T09:40:17;-4.00;99.90
36186;DHT22;22228;53.222;7.446;2024-01-10T09:43:41;-3.90;99.90
36186;DHT22;22228;53.222;7.446;2024-01-10T09:47:02;-3.90;99.90
36186;DHT22;22228;53.222;7.446;2024-01-10T09:50:23;-3.80;99.90
36186;DHT22;22228;53.222;7.446;2024-01-10T09:53:47;-3.80;99.90
36186;DHT22;22228;53.222;7.446;2024-01-10T09:57:10;-3.70;99.90
36186;DHT22;22228;53.222;7.446;2024-01-10T10:05:24;-3.60;99.90
36186;DHT22;22228;53.222;7.446;2024-01-10T10:08:44;-3.60;99.90
36186;DHT22;22228;53.222;7.446;2024-01-10T10:12:05;-3.60;99.90
36186;DHT22;22228;53.222;7.446;2024-01-10T10:15:25;-3.50;99.90
36186;DHT22;22228;53.222;7.446;2024-01-10T10:18:46;-3.40;99.90
36186;DHT22;22228;53.222;7.446;2024-01-10T10:22:11;-3.40;99.90
36186;DHT22;22228;53.222;7.446;2024-01-10T10:25:33;-3.40;99.90
36186;DHT22;22228;53.222;7.446;2024-01-10T10:28:54;-3.30;99.90
36186;DHT22;22228;53.222;7.446;2024-01-10T10:32:16;-3.30;99.90
36186;DHT22;22228;53.222;7.446;2024-01-10T10:35:37;-3.30;99.90
36186;DHT22;22228;53.222;7.446;2024-01-10T10:39:00;-3.20;99.90
36186;DHT22;22228;53.222;7.446;2024-01-10T10:42:24;-3.20;99.90
36186;DHT22;22228;53.222;7.446;2024-01-10T10:45:48;-3.20;99.90
36186;DHT22;22228;53.222;7.446;2024-01-10T10:49:11;-3.20;99.90
36186;DHT22;22228;53.222;7.446;2024-01-10T10:52:33;-3.20;99.90
36186;DHT22;22228;53.222;7.446;2024-01-10T10:55:57;-3.10;99.90
36186;DHT22;22228;53.222;7.446;2024-01-10T10:59:19;-3.00;99.90
36186;DHT22;22228;53.222;7.446;2024-01-10T11:02:40;-3.00;99.90
36186;DHT22;22228;53.222;7.446;2024-01-10T11:06:02;-3.00;99.90
36186;DHT22;22228;53.222;7.446;2024-01-10T11:09:23;-3.00;99.90
36186;DHT22;22228;53.222;7.446;2024-01-10T11:13:00;-3.00;99.90
36186;DHT22;22228;53.222;7.446;2024-01-10T11:16:59;-2.90;99.90
36186;DHT22;22228;53.222;7.446;2024-01-10T11:20:47;-2.80;99.90
36186;DHT22;22228;53.222;7.446;2024-01-10T11:24:10;-2.80;99.90
36186;DHT22;22228;53.222;7.446;2024-01-10T11:31:35;-2.80;99.90
36186;DHT22;22228;53.222;7.446;2024-01-10T11:34:57;-2.70;99.90
36186;DHT22;22228;53.222;7.446;2024-01-10T11:38:17;-2.70;99.90
36186;DHT22;22228;53.222;7.446;2024-01-10T11:41:39;-2.70;99.90
36186;DHT22;22228;53.222;7.446;2024-01-10T11:44:59;-2.70;99.90
36186;DHT22;22228;53.222;7.446;2024-01-10T11:48:31;-2.70;99.90
36186;DHT22;22228;53.222;7.446;2024-01-10T11:51:54;-2.70;99.90
36186;DHT22;22228;53.222;7.446;2024-01-10T11:55:49;-2.70;99.90
36186;DHT22;22228;53.222;7.446;2024-01-10T11:59:11;-2.60;99.90
36186;DHT22;22228;53.222;7.446;2024-01-10T12:02:34;-2.50;99.90
36186;DHT22;22228;53.222;7.446;2024-01-10T12:05:57;-2.50;99.90
36186;DHT22;22228;53.222;7.446;2024-01-10T12:09:19;-2.40;99.90
36186;DHT22;22228;53.222;7.446;2024-01-10T12:12:39;-2.40;99.90
36186;DHT22;22228;53.222;7.446;2024-01-10T12:16:00;-2.40;99.90
36186;DHT22;22228;53.222;7.446;2024-01-10T12:19:20;-2.30;99.90
36186;DHT22;22228;53.222;7.446;2024-01-10T12:22:42;-2.30;99.90
36186;DHT22;22228;53.222;7.446;2024-01-10T12:26:04;-2.30;99.90
36186;DHT22;22228;53.222;7.446;2024-01-10T12:29:26;-2.30;99.90
36186;DHT22;22228;53.222;7.446;2024-01-10T12:32:50;-2.30;99.90
36186;DHT22;22228;53.222;7.446;2024-01-10T12:36:11;-2.30;99.90
36186;DHT22;22228;53.222;7.446;2024-01-10T12:39:32;-2.30;99.90
36186;DHT22;22228;53.222;7.446;2024-01-10T12:43:02;-2.30;99.90
36186;DHT22;22228;53.222;7.446;2024-01-10T12:46:22;-2.20;99.90
36186;DHT22;22228;53.222;7.446;2024-01-10T12:49:43;-2.20;99.90
36186;DHT22;22228;53.222;7.446;2024-01-10T12:53:04;-2.20;99.90
36186;DHT22;22228;53.222;7.446;2024-01-10T12:56:26;-2.10;99.90
36186;DHT22;22228;53.222;7.446;2024-01-10T12:59:46;-2.10;99.90
36186;DHT22;22228;53.222;7.446;2024-01-10T13:03:07;-2.10;99.90
36186;DHT22;22228;53.222;7.446;2024-01-10T13:06:27;-2.00;97.50
36186;DHT22;22228;53.222;7.446;2024-01-10T13:09:48;-2.00;83.00
36186;DHT22;22228;53.222;7.446;2024-01-10T13:13:11;-2.00;1.00
36186;DHT22;22228;53.222;7.446;2024-01-10T13:16:31;-2.00;55.10
36186;DHT22;22228;53.222;7.446;2024-01-10T13:19:52;-2.00;99.90
36186;DHT22;22228;53.222;7.446;2024-01-10T13:23:13;-1.90;1.00
36186;DHT22;22228;53.222;7.446;2024-01-10T13:26:34;-1.90;99.90
36186;DHT22;22228;53.222;7.446;2024-01-10T13:29:56;-1.90;99.90
36186;DHT22;22228;53.222;7.446;2024-01-10T13:33:16;-2.00;1.00
36186;DHT22;22228;53.222;7.446;2024-01-10T13:36:38;-1.90;99.90
36186;DHT22;22228;53.222;7.446;2024-01-10T13:39:59;-1.90;1.00
36186;DHT22;22228;53.222;7.446;2024-01-10T13:43:19;-1.90;1.00
36186;DHT22;22228;53.222;7.446;2024-01-10T13:46:41;-1.90;1.00
36186;DHT22;22228;53.222;7.446;2024-01-10T13:50:02;-2.00;1.00
36186;DHT22;22228;53.222;7.446;2024-01-10T13:53:23;-1.90;99.90
36186;DHT22;22228;53.222;7.446;2024-01-10T13:56:43;-1.90;99.90
36186;DHT22;22228;53.222;7.446;2024-01-10T14:00:05;-2.00;1.00
36186;DHT22;22228;53.222;7.446;2024-01-10T14:03:34;-1.90;1.00
36186;DHT22;22228;53.222;7.446;2024-01-10T14:06:55;-1.90;99.90
36186;DHT22;22228;53.222;7.446;2024-01-10T14:10:15;-1.90;1.00
36186;DHT22;22228;53.222;7.446;2024-01-10T14:13:36;-1.80;32.80
36186;DHT22;22228;53.222;7.446;2024-01-10T14:16:56;-1.80;1.00
36186;DHT22;22228;53.222;7.446;2024-01-10T14:20:18;-1.80;1.00
36186;DHT22;22228;53.222;7.446;2024-01-10T14:23:40;-1.80;1.00
36186;DHT22;22228;53.222;7.446;2024-01-10T14:27:00;-1.80;1.00
36186;DHT22;22228;53.222;7.446;2024-01-10T14:30:21;-1.90;1.00
36186;DHT22;22228;53.222;7.446;2024-01-10T14:33:44;-1.90;99.90
36186;DHT22;22228;53.222;7.446;2024-01-10T14:37:05;-1.90;99.90
36186;DHT22;22228;53.222;7.446;2024-01-10T14:40:26;-2.10;1.00
36186;DHT22;22228;53.222;7.446;2024-01-10T14:43:46;-2.10;99.90
36186;DHT22;22228;53.222;7.446;2024-01-10T14:47:07;-2.20;1.00
36186;DHT22;22228;53.222;7.446;2024-01-10T14:50:27;-2.20;99.90
36186;DHT22;22228;53.222;7.446;2024-01-10T14:53:49;-2.30;99.90
36186;DHT22;22228;53.222;7.446;2024-01-10T14:57:10;-2.40;99.90
36186;DHT22;22228;53.222;7.446;2024-01-10T15:00:31;-2.30;99.90
36186;DHT22;22228;53.222;7.446;2024-01-10T15:03:51;-2.40;1.00
36186;DHT22;22228;53.222;7.446;2024-01-10T15:07:12;-2.50;99.90
36186;DHT22;22228;53.222;7.446;2024-01-10T15:10:34;-2.50;99.90
36186;DHT22;22228;53.222;7.446;2024-01-10T15:13:54;-2.50;99.90
36186;DHT22;22228;53.222;7.446;2024-01-10T15:17:15;-2.50;1.00
36186;DHT22;22228;53.222;7.446;2024-01-10T15:20:36;-2.70;99.90
36186;DHT22;22228;53.222;7.446;2024-01-10T15:23:56;-2.60;1.00
36186;DHT22;22228;53.222;7.446;2024-01-10T15:27:18;-2.70;99.90
36186;DHT22;22228;53.222;7.446;2024-01-10T15:30:39;-2.80;99.90
36186;DHT22;22228;53.222;7.446;2024-01-10T15:34:02;-2.80;99.90
36186;DHT22;22228;53.222;7.446;2024-01-10T15:37:22;-2.90;99.90
36186;DHT22;22228;53.222;7.446;2024-01-10T15:40:43;-2.90;1.00
36186;DHT22;22228;53.222;7.446;2024-01-10T15:44:05;-3.00;46.80
36186;DHT22;22228;53.222;7.446;2024-01-10T15:47:28;-3.00;99.90
36186;DHT22;22228;53.222;7.446;2024-01-10T15:50:48;-3.00;99.90
36186;DHT22;22228;53.222;7.446;2024-01-10T15:54:09;-3.10;1.00
36186;DHT22;22228;53.222;7.446;2024-01-10T15:57:29;-3.10;99.90
36186;DHT22;22228;53.222;7.446;2024-01-10T16:00:52;-3.10;1.00
36186;DHT22;22228;53.222;7.446;2024-01-10T16:04:12;-3.10;1.00
36186;DHT22;22228;53.222;7.446;2024-01-10T16:07:33;-3.30;1.00
36186;DHT22;22228;53.222;7.446;2024-01-10T16:10:53;-3.30;1.00
36186;DHT22;22228;53.222;7.446;2024-01-10T16:14:13;-3.30;1.00
36186;DHT22;22228;53.222;7.446;2024-01-10T16:17:35;-3.30;1.00
36186;DHT22;22228;53.222;7.446;2024-01-10T16:20:56;-3.40;1.00
36186;DHT22;22228;53.222;7.446;2024-01-10T16:24:17;-3.50;1.00
36186;DHT22;22228;53.222;7.446;2024-01-10T16:27:37;-3.50;1.00
36186;DHT22;22228;53.222;7.446;2024-01-10T16:30:58;-3.50;1.00
36186;DHT22;22228;53.222;7.446;2024-01-10T16:34:19;-3.50;1.00
36186;DHT22;22228;53.222;7.446;2024-01-10T16:37:40;-3.60;1.00
36186;DHT22;22228;53.222;7.446;2024-01-10T16:41:01;-3.60;1.00
36186;DHT22;22228;53.222;7.446;2024-01-10T16:44:21;-3.60;1.00
36186;DHT22;22228;53.222;7.446;2024-01-10T16:47:41;-3.70;1.20
36186;DHT22;22228;53.222;7.446;2024-01-10T16:51:04;-3.80;33.90
36186;DHT22;22228;53.222;7.446;2024-01-10T16:54:24;-3.80;61.30
36186;DHT22;22228;53.222;7.446;2024-01-10T16:57:45;-3.80;91.10
36186;DHT22;22228;53.222;7.446;2024-01-10T17:01:05;-3.80;95.10
36186;DHT22;22228;53.222;7.446;2024-01-10T17:04:25;-3.80;90.90
36186;DHT22;22228;53.222;7.446;2024-01-10T17:07:47;-3.90;95.20
36186;DHT22;22228;53.222;7.446;2024-01-10T17:11:08;-3.80;99.90
36186;DHT22;22228;53.222;7.446;2024-01-10T17:14:28;-3.90;99.90
36186;DHT22;22228;53.222;7.446;2024-01-10T17:17:49;-3.90;99.90
36186;DHT22;22228;53.222;7.446;2024-01-10T17:21:09;-3.90;99.90
36186;DHT22;22228;53.222;7.446;2024-01-10T17:24:31;-3.90;99.90
36186;DHT22;22228;53.222;7.446;2024-01-10T17:27:52;-3.90;99.90
36186;DHT22;22228;53.222;7.446;2024-01-10T17:31:12;-3.90;99.90
36186;DHT22;22228;53.222;7.446;2024-01-10T17:34:33;-3.90;99.90
36186;DHT22;22228;53.222;7.446;2024-01-10T17:37:54;-3.90;99.90
36186;DHT22;22228;53.222;7.446;2024-01-10T17:41:16;-4.00;99.90
36186;DHT22;22228;53.222;7.446;2024-01-10T17:44:36;-4.00;99.90
36186;DHT22;22228;53.222;7.446;2024-01-10T17:47:57;-4.10;99.90
36186;DHT22;22228;53.222;7.446;2024-01-10T17:51:17;-4.10;99.90
36186;DHT22;22228;53.222;7.446;2024-01-10T17:54:40;-4.20;99.90
36186;DHT22;22228;53.222;7.446;2024-01-10T17:58:04;-4.20;99.90
36186;DHT22;22228;53.222;7.446;2024-01-10T18:01:25;-4.20;99.90
36186;DHT22;22228;53.222;7.446;2024-01-10T18:04:45;-4.20;99.90
36186;DHT22;22228;53.222;7.446;2024-01-10T18:08:06;-4.30;99.90
36186;DHT22;22228;53.222;7.446;2024-01-10T18:11:26;-4.30;99.90
36186;DHT22;22228;53.222;7.446;2024-01-10T18:14:48;-4.20;99.90
36186;DHT22;22228;53.222;7.446;2024-01-10T18:18:09;-4.30;99.90
36186;DHT22;22228;53.222;7.446;2024-01-10T18:21:29;-4.20;99.90
36186;DHT22;22228;53.222;7.446;2024-01-10T18:24:50;-4.20;99.90
36186;DHT22;22228;53.222;7.446;2024-01-10T18:28:10;-4.10;99.90
36186;DHT22;22228;53.222;7.446;2024-01-10T18:31:32;-4.20;99.90
36186;DHT22;22228;53.222;7.446;2024-01-10T18:34:52;-4.20;99.90
36186;DHT22;22228;53.222;7.446;2024-01-10T18:38:13;-4.20;99.90
36186;DHT22;22228;53.222;7.446;2024-01-10T18:41:35;-4.20;99.90
36186;DHT22;22228;53.222;7.446;2024-01-10T18:44:57;-4.30;99.90
36186;DHT22;22228;53.222;7.446;2024-01-10T18:48:19;-4.30;99.90
36186;DHT22;22228;53.222;7.446;2024-01-10T18:51:41;-4.40;99.90
36186;DHT22;22228;53.222;7.446;2024-01-10T18:55:02;-4.40;99.90
36186;DHT22;22228;53.222;7.446;2024-01-10T18:58:23;-4.40;99.90
36186;DHT22;22228;53.222;7.446;2024-01-10T19:01:43;-4.40;99.90
36186;DHT22;22228;53.222;7.446;2024-01-10T19:05:08;-4.40;99.90
36186;DHT22;22228;53.222;7.446;2024-01-10T19:08:28;-4.50;99.90
36186;DHT22;22228;53.222;7.446;2024-01-10T19:11:49;-4.50;99.90
36186;DHT22;22228;53.222;7.446;2024-01-10T19:15:10;-4.50;99.90
36186;DHT22;22228;53.222;7.446;2024-01-10T19:18:32;-4.40;99.90
36186;DHT22;22228;53.222;7.446;2024-01-10T19:21:54;-4.40;99.90
36186;DHT22;22228;53.222;7.446;2024-01-10T19:25:14;-4.40;99.90
36186;DHT22;22228;53.222;7.446;2024-01-10T19:28:35;-4.50;99.90
36186;DHT22;22228;53.222;7.446;2024-01-10T19:31:56;-4.50;99.90
36186;DHT22;22228;53.222;7.446;2024-01-10T19:35:16;-4.50;99.90
36186;DHT22;22228;53.222;7.446;2024-01-10T19:38:38;-4.50;99.90
36186;DHT22;22228;53.222;7.446;2024-01-10T19:41:59;-4.50;99.90
36186;DHT22;22228;53.222;7.446;2024-01-10T19:45:20;-4.50;99.90
36186;DHT22;22228;53.222;7.446;2024-01-10T19:48:40;-4.60;99.90
36186;DHT22;22228;53.222;7.446;2024-01-10T19:52:01;-4.50;99.90
36186;DHT22;22228;53.222;7.446;2024-01-10T19:55:23;-4.60;99.90
36186;DHT22;22228;53.222;7.446;2024-01-10T19:58:43;-4.60;99.90
36186;DHT22;22228;53.222;7.446;2024-01-10T20:02:04;-4.60;99.90
36186;DHT22;22228;53.222;7.446;2024-01-10T20:05:28;-4.60;99.90
36186;DHT22;22228;53.222;7.446;2024-01-10T20:08:48;-4.60;99.90
36186;DHT22;22228;53.222;7.446;2024-01-10T20:12:10;-4.70;99.90
36186;DHT22;22228;53.222;7.446;2024-01-10T20:15:31;-4.70;99.90
36186;DHT22;22228;53.222;7.446;2024-01-10T20:18:51;-4.70;99.90
36186;DHT22;22228;53.222;7.446;2024-01-10T20:22:12;-4.80;99.90
36186;DHT22;22228;53.222;7.446;2024-01-10T20:25:32;-4.80;99.90
36186;DHT22;22228;53.222;7.446;2024-01-10T20:28:55;-4.80;99.90
36186;DHT22;22228;53.222;7.446;2024-01-10T20:32:16;-4.80;99.90
36186;DHT22;22228;53.222;7.446;2024-01-10T20:35:36;-4.90;99.90
36186;DHT22;22228;53.222;7.446;2024-01-10T20:38:58;-4.90;99.90
36186;DHT22;22228;53.222;7.446;2024-01-10T20:42:18;-5.00;99.90
36186;DHT22;22228;53.222;7.446;2024-01-10T20:45:40;-5.00;99.90
36186;DHT22;22228;53.222;7.446;2024-01-10T20:49:01;-4.90;99.90
36186;DHT22;22228;53.222;7.446;2024-01-10T20:52:21;-4.90;99.90
36186;DHT22;22228;53.222;7.446;2024-01-10T20:55:42;-5.00;99.90
36186;DHT22;22228;53.222;7.446;2024-01-10T20:59:02;-5.10;99.90
36186;DHT22;22228;53.222;7.446;2024-01-10T21:02:25;-5.10;99.90
36186;DHT22;22228;53.222;7.446;2024-01-10T21:05:46;-5.20;99.90
36186;DHT22;22228;53.222;7.446;2024-01-10T21:09:07;-5.10;99.90
36186;DHT22;22228;53.222;7.446;2024-01-10T21:12:27;-5.10;99.90
36186;DHT22;22228;53.222;7.446;2024-01-10T21:15:48;-5.10;99.90
36186;DHT22;22228;53.222;7.446;2024-01-10T21:19:10;-5.10;99.90
36186;DHT22;22228;53.222;7.446;2024-01-10T21:22:30;-5.20;99.90
36186;DHT22;22228;53.222;7.446;2024-01-10T21:25:51;-5.20;99.90
36186;DHT22;22228;53.222;7.446;2024-01-10T21:29:12;-5.30;99.90
36186;DHT22;22228;53.222;7.446;2024-01-10T21:32:32;-5.30;99.90
36186;DHT22;22228;53.222;7.446;2024-01-10T21:35:54;-5.40;99.90
36186;DHT22;22228;53.222;7.446;2024-01-10T21:39:15;-5.40;99.90
36186;DHT22;22228;53.222;7.446;2024-01-10T21:42:35;-5.40;99.90
36186;DHT22;22228;53.222;7.446;2024-01-10T21:45:56;-5.50;99.90
36186;DHT22;22228;53.222;7.446;2024-01-10T21:49:16;-5.60;99.90
36186;DHT22;22228;53.222;7.446;2024-01-10T21:52:38;-5.50;99.90
36186;DHT22;22228;53.222;7.446;2024-01-10T21:55:59;-5.40;99.90
36186;DHT22;22228;53.222;7.446;2024-01-10T21:59:19;-5.40;99.90
36186;DHT22;22228;53.222;7.446;2024-01-10T22:02:40;-5.40;99.90
36186;DHT22;22228;53.222;7.446;2024-01-10T22:06:00;-5.40;99.90
36186;DHT22;22228;53.222;7.446;2024-01-10T22:09:22;-5.50;99.90
36186;DHT22;22228;53.222;7.446;2024-01-10T22:12:43;-5.50;99.90
36186;DHT22;22228;53.222;7.446;2024-01-10T22:16:04;-5.60;99.90
36186;DHT22;22228;53.222;7.446;2024-01-10T22:19:25;-5.70;99.90
36186;DHT22;22228;53.222;7.446;2024-01-10T22:22:46;-5.70;99.90
36186;DHT22;22228;53.222;7.446;2024-01-10T22:26:07;-5.70;99.90
36186;DHT22;22228;53.222;7.446;2024-01-10T22:29:28;-5.60;99.90
36186;DHT22;22228;53.222;7.446;2024-01-10T22:32:48;-5.60;99.90
36186;DHT22;22228;53.222;7.446;2024-01-10T22:36:09;-5.60;99.90
36186;DHT22;22228;53.222;7.446;2024-01-10T22:39:29;-5.50;99.90
36186;DHT22;22228;53.222;7.446;2024-01-10T22:42:51;-5.50;99.90
36186;DHT22;22228;53.222;7.446;2024-01-10T22:46:12;-5.50;99.90
36186;DHT22;22228;53.222;7.446;2024-01-10T22:49:32;-5.40;99.90
36186;DHT22;22228;53.222;7.446;2024-01-10T22:52:53;-5.40;99.90
36186;DHT22;22228;53.222;7.446;2024-01-10T22:56:13;-5.40;99.90
36186;DHT22;22228;53.222;7.446;2024-01-10T22:59:35;-5.40;99.90
36186;DHT22;22228;53.222;7.446;2024-01-10T23:02:55;-5.50;99.90
36186;DHT22;22228;53.222;7.446;2024-01-10T23:06:16;-5.50;99.90
36186;DHT22;22228;53.222;7.446;2024-01-10T23:09:37;-5.50;99.90
36186;DHT22;22228;53.222;7.446;2024-01-10T23:12:57;-5.40;99.90
36186;DHT22;22228;53.222;7.446;2024-01-10T23:16:19;-5.40;99.90
36186;DHT22;22228;53.222;7.446;2024-01-10T23:19:39;-5.40;99.90
36186;DHT22;22228;53.222;7.446;2024-01-10T23:23:00;-5.30;99.90
36186;DHT22;22228;53.222;7.446;2024-01-10T23:26:21;-5.30;99.90
36186;DHT22;22228;53.222;7.446;2024-01-10T23:29:42;-5.40;99.90
36186;DHT22;22228;53.222;7.446;2024-01-10T23:33:04;-5.40;99.90
36186;DHT22;22228;53.222;7.446;2024-01-10T23:36:25;-5.50;99.90
36186;DHT22;22228;53.222;7.446;2024-01-10T23:39:46;-5.60;99.90
36186;DHT22;22228;53.222;7.446;2024-01-10T23:43:06;-5.50;99.90
36186;DHT22;22228;53.222;7.446;2024-01-10T23:46:27;-5.60;99.90
36186;DHT22;22228;53.222;7.446;2024-01-10T23:49:48;-5.50;99.90
36186;DHT22;22228;53.222;7.446;2024-01-10T23:53:09;-5.40;99.90
36186;DHT22;22228;53.222;7.446;2024-01-10T23:56:29;-5.40;99.90
36186;DHT22;22228;53.222;7.446;2024-01-10T23:59:50;-5.30;99.90
